KPTB/PTB METAR and TAF weather

Enter ICAO airport designator
Station Type Date Time Source
KPTB METAR 2019/09/20 20:15 UTC NOAA

KPTB 202015Z AUTO 17005KT 10SM CLR 26/08 A3023 RMK AO2 T02600078


Station Type Date Time Source
KPTB Decoded METAR 2019/09/20 20:15 UTC NOAA

Petersburg, Dinwiddie County Airport, VA, United States (KPTB) 37-11N 077-31W
Sep 20, 2019 - 04:15 PM EDT / 2019.09.20 2015 UTC
Wind: from the S (170 degrees) at 6 MPH (5 KT):0
Visibility: 10 mile(s):0
Sky conditions: clear
Temperature: 78.8 F (26.0 C)
Dew Point: 46.0 F (7.8 C)
Relative Humidity: 31%
Pressure (altimeter): 30.23 in. Hg (1023 hPa)
ob: KPTB 202015Z AUTO 17005KT 10SM CLR 26/08 A3023 RMK AO2 T02600078
cycle: 20

Station Type Date Time Source
KPTB TAF UTC NOAA

Error!

Example: see airport list